sensor_id;sensor_type;location;lat;lon;timestamp;pressure;altitude;pressure_sealevel;temperature;humidity
9289;BME280;4683;50.864;12.086;2022-10-16T00:01:50;98878.94;;;18.19;100.00
9289;BME280;4683;50.864;12.086;2022-10-16T00:04:18;98873.06;;;18.17;100.00
9289;BME280;4683;50.864;12.086;2022-10-16T00:06:50;98878.59;;;18.27;100.00
9289;BME280;4683;50.864;12.086;2022-10-16T00:09:19;98883.59;;;18.35;100.00
9289;BME280;4683;50.864;12.086;2022-10-16T00:11:49;98888.22;;;18.40;100.00
9289;BME280;4683;50.864;12.086;2022-10-16T00:14:19;98883.78;;;18.45;100.00
9289;BME280;4683;50.864;12.086;2022-10-16T00:16:47;98879.25;;;18.46;100.00
9289;BME280;4683;50.864;12.086;2022-10-16T00:19:17;98872.03;;;18.46;100.00
9289;BME280;4683;50.864;12.086;2022-10-16T00:21:45;98869.38;;;18.46;100.00
9289;BME280;4683;50.864;12.086;2022-10-16T00:24:17;98883.78;;;18.45;100.00
9289;BME280;4683;50.864;12.086;2022-10-16T00:26:50;98877.28;;;18.41;100.00
9289;BME280;4683;50.864;12.086;2022-10-16T00:29:19;98880.41;;;18.38;100.00
9289;BME280;4683;50.864;12.086;2022-10-16T00:31:47;98890.53;;;18.36;100.00
9289;BME280;4683;50.864;12.086;2022-10-16T00:34:17;98888.94;;;18.35;100.00
9289;BME280;4683;50.864;12.086;2022-10-16T00:36:46;98881.13;;;18.34;100.00
9289;BME280;4683;50.864;12.086;2022-10-16T00:39:17;98890.19;;;18.33;100.00
9289;BME280;4683;50.864;12.086;2022-10-16T00:41:47;98882.63;;;18.30;100.00
9289;BME280;4683;50.864;12.086;2022-10-16T00:44:48;98871.09;;;18.12;100.00
9289;BME280;4683;50.864;12.086;2022-10-16T00:47:24;98873.06;;;18.17;100.00
9289;BME280;4683;50.864;12.086;2022-10-16T00:50:00;98872.09;;;18.11;100.00
9289;BME280;4683;50.864;12.086;2022-10-16T00:52:32;98880.34;;;18.10;100.00
9289;BME280;4683;50.864;12.086;2022-10-16T00:55:04;98872.81;;;18.07;100.00
9289;BME280;4683;50.864;12.086;2022-10-16T00:57:34;98868.16;;;18.02;100.00
9289;BME280;4683;50.864;12.086;2022-10-16T01:00:07;98862.47;;;17.98;100.00
9289;BME280;4683;50.864;12.086;2022-10-16T01:02:36;98868.75;;;17.92;100.00
9289;BME280;4683;50.864;12.086;2022-10-16T01:05:06;98874.09;;;17.92;100.00
9289;BME280;4683;50.864;12.086;2022-10-16T01:07:43;98875.03;;;17.86;100.00
9289;BME280;4683;50.864;12.086;2022-10-16T01:10:26;98878.97;;;17.84;100.00
9289;BME280;4683;50.864;12.086;2022-10-16T01:13:01;98884.09;;;17.73;100.00
9289;BME280;4683;50.864;12.086;2022-10-16T01:15:44;98891.25;;;17.73;100.00
9289;BME280;4683;50.864;12.086;2022-10-16T01:18:23;98886.97;;;17.72;100.00
9289;BME280;4683;50.864;12.086;2022-10-16T01:21:02;98889.03;;;17.70;100.00
9289;BME280;4683;50.864;12.086;2022-10-16T01:23:47;98888.34;;;17.63;100.00
9289;BME280;4683;50.864;12.086;2022-10-16T01:26:36;98884.03;;;17.62;100.00
9289;BME280;4683;50.864;12.086;2022-10-16T01:29:14;98894.69;;;17.62;100.00
9289;BME280;4683;50.864;12.086;2022-10-16T01:31:50;98889.84;;;17.59;100.00
9289;BME280;4683;50.864;12.086;2022-10-16T01:34:30;98880.78;;;17.60;100.00
9289;BME280;4683;50.864;12.086;2022-10-16T01:37:05;98896.78;;;17.60;100.00
9289;BME280;4683;50.864;12.086;2022-10-16T01:39:39;98892.63;;;17.64;100.00
9289;BME280;4683;50.864;12.086;2022-10-16T01:42:12;98896.47;;;17.68;100.00
9289;BME280;4683;50.864;12.086;2022-10-16T01:44:46;98894.16;;;17.71;100.00
9289;BME280;4683;50.864;12.086;2022-10-16T01:47:17;98895.56;;;17.74;100.00
9289;BME280;4683;50.864;12.086;2022-10-16T01:49:48;98898.66;;;17.71;100.00
9289;BME280;4683;50.864;12.086;2022-10-16T01:52:21;98886.16;;;17.71;100.00
9289;BME280;4683;50.864;12.086;2022-10-16T01:54:54;98888.47;;;17.68;100.00
9289;BME280;4683;50.864;12.086;2022-10-16T01:57:25;98892.63;;;17.64;100.00
9289;BME280;4683;50.864;12.086;2022-10-16T02:00:00;98887.75;;;17.61;100.00
9289;BME280;4683;50.864;12.086;2022-10-16T02:02:31;98899.81;;;17.63;100.00
9289;BME280;4683;50.864;12.086;2022-10-16T02:05:05;98901.69;;;17.63;100.00
9289;BME280;4683;50.864;12.086;2022-10-16T02:07:37;98891.00;;;17.63;100.00
9289;BME280;4683;50.864;12.086;2022-10-16T02:10:06;98901.19;;;17.54;100.00
9289;BME280;4683;50.864;12.086;2022-10-16T02:12:40;98895.13;;;17.35;100.00
9289;BME280;4683;50.864;12.086;2022-10-16T02:15:11;98896.03;;;17.29;100.00
9289;BME280;4683;50.864;12.086;2022-10-16T02:17:39;98898.13;;;17.27;100.00
9289;BME280;4683;50.864;12.086;2022-10-16T02:20:09;98898.31;;;17.14;100.00
9289;BME280;4683;50.864;12.086;2022-10-16T02:22:42;98904.53;;;17.08;100.00
9289;BME280;4683;50.864;12.086;2022-10-16T02:25:18;98901.41;;;16.99;100.00
9289;BME280;4683;50.864;12.086;2022-10-16T02:27:55;98900.56;;;16.98;100.00
9289;BME280;4683;50.864;12.086;2022-10-16T02:30:32;98905.44;;;17.02;100.00
9289;BME280;4683;50.864;12.086;2022-10-16T02:33:05;98917.88;;;17.08;100.00
9289;BME280;4683;50.864;12.086;2022-10-16T02:35:36;98919.72;;;17.07;100.00
9289;BME280;4683;50.864;12.086;2022-10-16T02:38:05;98918.53;;;17.03;100.00
9289;BME280;4683;50.864;12.086;2022-10-16T02:40:35;98914.50;;;17.01;100.00
9289;BME280;4683;50.864;12.086;2022-10-16T02:43:05;98911.88;;;17.12;100.00
9289;BME280;4683;50.864;12.086;2022-10-16T02:45:35;98907.94;;;17.15;100.00
9289;BME280;4683;50.864;12.086;2022-10-16T02:48:08;98906.44;;;17.19;100.00
9289;BME280;4683;50.864;12.086;2022-10-16T02:50:37;98908.53;;;17.17;100.00
9289;BME280;4683;50.864;12.086;2022-10-16T02:53:05;98922.19;;;17.09;100.00
9289;BME280;4683;50.864;12.086;2022-10-16T02:55:38;98917.47;;;16.92;100.00
9289;BME280;4683;50.864;12.086;2022-10-16T02:58:07;98898.25;;;16.90;100.00
9289;BME280;4683;50.864;12.086;2022-10-16T03:00:37;98907.31;;;17.01;100.00
9289;BME280;4683;50.864;12.086;2022-10-16T03:03:05;98910.78;;;17.02;100.00
9289;BME280;4683;50.864;12.086;2022-10-16T03:05:34;98923.28;;;17.01;100.00
9289;BME280;4683;50.864;12.086;2022-10-16T03:08:02;98908.91;;;16.90;100.00
9289;BME280;4683;50.864;12.086;2022-10-16T03:10:31;98914.66;;;16.87;100.00
9289;BME280;4683;50.864;12.086;2022-10-16T03:13:03;98917.09;;;16.89;100.00
9289;BME280;4683;50.864;12.086;2022-10-16T03:15:31;98919.09;;;16.93;100.00
9289;BME280;4683;50.864;12.086;2022-10-16T03:18:01;98917.03;;;16.95;100.00
9289;BME280;4683;50.864;12.086;2022-10-16T03:20:30;98927.59;;;17.02;100.00
9289;BME280;4683;50.864;12.086;2022-10-16T03:22:58;98919.44;;;16.97;100.00
9289;BME280;4683;50.864;12.086;2022-10-16T03:25:26;98911.69;;;16.95;100.00
9289;BME280;4683;50.864;12.086;2022-10-16T03:27:54;98890.50;;;17.01;100.00
9289;BME280;4683;50.864;12.086;2022-10-16T03:30:23;98900.94;;;17.02;100.00
9289;BME280;4683;50.864;12.086;2022-10-16T03:32:52;98900.50;;;17.05;100.00
9289;BME280;4683;50.864;12.086;2022-10-16T03:35:22;98911.16;;;17.05;100.00
9289;BME280;4683;50.864;12.086;2022-10-16T03:37:51;98918.66;;;16.96;100.00
9289;BME280;4683;50.864;12.086;2022-10-16T03:40:21;98928.28;;;16.79;100.00
9289;BME280;4683;50.864;12.086;2022-10-16T03:42:49;98919.41;;;16.67;100.00
9289;BME280;4683;50.864;12.086;2022-10-16T03:45:18;98927.59;;;16.65;100.00
9289;BME280;4683;50.864;12.086;2022-10-16T03:47:48;98923.06;;;16.72;100.00
9289;BME280;4683;50.864;12.086;2022-10-16T03:50:16;98910.00;;;16.83;100.00
9289;BME280;4683;50.864;12.086;2022-10-16T03:52:46;98909.72;;;16.91;100.00
9289;BME280;4683;50.864;12.086;2022-10-16T03:55:15;98918.66;;;16.96;100.00
9289;BME280;4683;50.864;12.086;2022-10-16T03:57:44;98910.41;;;16.98;100.00
9289;BME280;4683;50.864;12.086;2022-10-16T04:00:13;98927.69;;;16.95;100.00
9289;BME280;4683;50.864;12.086;2022-10-16T04:02:42;98920.13;;;16.92;100.00
9289;BME280;4683;50.864;12.086;2022-10-16T04:05:10;98921.19;;;16.91;100.00
9289;BME280;4683;50.864;12.086;2022-10-16T04:07:39;98919.56;;;16.90;100.00
9289;BME280;4683;50.864;12.086;2022-10-16T04:10:14;98919.19;;;16.87;100.00
9289;BME280;4683;50.864;12.086;2022-10-16T04:12:42;98919.63;;;16.84;100.00
9289;BME280;4683;50.864;12.086;2022-10-16T04:15:11;98925.41;;;16.81;100.00
9289;BME280;4683;50.864;12.086;2022-10-16T04:17:39;98935.84;;;16.82;100.00
9289;BME280;4683;50.864;12.086;2022-10-16T04:20:09;98934.81;;;16.83;100.00
9289;BME280;4683;50.864;12.086;2022-10-16T04:22:37;98940.13;;;16.83;100.00
9289;BME280;4683;50.864;12.086;2022-10-16T04:25:07;98935.25;;;16.80;100.00
9289;BME280;4683;50.864;12.086;2022-10-16T04:27:38;98944.28;;;16.79;100.00
9289;BME280;4683;50.864;12.086;2022-10-16T04:30:08;98943.47;;;16.79;100.00
9289;BME280;4683;50.864;12.086;2022-10-16T04:32:36;98947.97;;;16.78;100.00
9289;BME280;4683;50.864;12.086;2022-10-16T04:35:06;98947.41;;;16.76;100.00
9289;BME280;4683;50.864;12.086;2022-10-16T04:37:34;98949.88;;;16.71;100.00
9289;BME280;4683;50.864;12.086;2022-10-16T04:40:04;98957.28;;;16.51;100.00
9289;BME280;4683;50.864;12.086;2022-10-16T04:42:33;98949.44;;;16.37;100.00
9289;BME280;4683;50.864;12.086;2022-10-16T04:45:05;98962.81;;;16.31;100.00
9289;BME280;4683;50.864;12.086;2022-10-16T04:47:34;98968.72;;;16.33;100.00
9289;BME280;4683;50.864;12.086;2022-10-16T04:50:03;98959.50;;;16.35;100.00
9289;BME280;4683;50.864;12.086;2022-10-16T04:52:31;98966.59;;;16.41;100.00
9289;BME280;4683;50.864;12.086;2022-10-16T04:55:00;98972.06;;;16.46;100.00
9289;BME280;4683;50.864;12.086;2022-10-16T04:57:29;98981.91;;;16.46;100.00
9289;BME280;4683;50.864;12.086;2022-10-16T05:00:00;98998.31;;;16.43;100.00
9289;BME280;4683;50.864;12.086;2022-10-16T05:02:31;99011.88;;;16.41;100.00
9289;BME280;4683;50.864;12.086;2022-10-16T05:04:59;99008.41;;;16.16;100.00
9289;BME280;4683;50.864;12.086;2022-10-16T05:07:28;99007.16;;;16.18;100.00
9289;BME280;4683;50.864;12.086;2022-10-16T05:09:56;98994.81;;;16.24;100.00
9289;BME280;4683;50.864;12.086;2022-10-16T05:12:25;98997.25;;;16.26;100.00
9289;BME280;4683;50.864;12.086;2022-10-16T05:14:53;99005.47;;;16.24;100.00
9289;BME280;4683;50.864;12.086;2022-10-16T05:17:25;99011.00;;;16.22;100.00
9289;BME280;4683;50.864;12.086;2022-10-16T05:19:55;99003.59;;;16.24;100.00
9289;BME280;4683;50.864;12.086;2022-10-16T05:22:24;98999.25;;;16.30;100.00
9289;BME280;4683;50.864;12.086;2022-10-16T05:24:53;99002.09;;;16.35;100.00
9289;BME280;4683;50.864;12.086;2022-10-16T05:27:21;99004.09;;;16.40;100.00
9289;BME280;4683;50.864;12.086;2022-10-16T05:29:51;99002.97;;;16.47;100.00
9289;BME280;4683;50.864;12.086;2022-10-16T05:32:19;99005.13;;;16.57;100.00
9289;BME280;4683;50.864;12.086;2022-10-16T05:34:48;99001.38;;;16.65;100.00
9289;BME280;4683;50.864;12.086;2022-10-16T05:37:21;99000.47;;;16.71;100.00
9289;BME280;4683;50.864;12.086;2022-10-16T05:39:49;99004.75;;;16.79;100.00
9289;BME280;4683;50.864;12.086;2022-10-16T05:42:18;99016.72;;;16.88;100.00
9289;BME280;4683;50.864;12.086;2022-10-16T05:44:46;99012.97;;;16.95;100.00
9289;BME280;4683;50.864;12.086;2022-10-16T05:47:15;99023.53;;;17.02;100.00
9289;BME280;4683;50.864;12.086;2022-10-16T05:49:43;99012.19;;;17.07;100.00
9289;BME280;4683;50.864;12.086;2022-10-16T05:52:12;99030.84;;;17.07;100.00
9289;BME280;4683;50.864;12.086;2022-10-16T05:54:42;99025.47;;;17.13;100.00
9289;BME280;4683;50.864;12.086;2022-10-16T05:57:11;99021.66;;;17.21;100.00
9289;BME280;4683;50.864;12.086;2022-10-16T05:59:39;99030.97;;;17.30;100.00
9289;BME280;4683;50.864;12.086;2022-10-16T06:02:12;99036.59;;;17.40;100.00
9289;BME280;4683;50.864;12.086;2022-10-16T06:04:41;99036.06;;;17.50;100.00
9289;BME280;4683;50.864;12.086;2022-10-16T06:07:10;99032.28;;;17.58;100.00
9289;BME280;4683;50.864;12.086;2022-10-16T06:09:39;99042.41;;;17.67;100.00
9289;BME280;4683;50.864;12.086;2022-10-16T06:12:08;99046.00;;;17.73;100.00
9289;BME280;4683;50.864;12.086;2022-10-16T06:14:37;99055.78;;;17.79;100.00
9289;BME280;4683;50.864;12.086;2022-10-16T06:17:05;99059.75;;;17.88;100.00
9289;BME280;4683;50.864;12.086;2022-10-16T06:19:33;99066.72;;;17.89;100.00
9289;BME280;4683;50.864;12.086;2022-10-16T06:22:02;99065.09;;;17.88;100.00
9289;BME280;4683;50.864;12.086;2022-10-16T06:24:31;99064.91;;;18.02;100.00
9289;BME280;4683;50.864;12.086;2022-10-16T06:26:59;99068.41;;;18.14;100.00
9289;BME280;4683;50.864;12.086;2022-10-16T06:29:29;99083.75;;;18.18;100.00
9289;BME280;4683;50.864;12.086;2022-10-16T06:31:58;99078.78;;;18.22;100.00
9289;BME280;4683;50.864;12.086;2022-10-16T06:34:27;99095.47;;;18.29;100.00
9289;BME280;4683;50.864;12.086;2022-10-16T06:36:56;99097.94;;;18.31;100.00
9289;BME280;4683;50.864;12.086;2022-10-16T06:39:25;99093.53;;;18.36;100.00
9289;BME280;4683;50.864;12.086;2022-10-16T06:41:53;99097.81;;;18.37;100.00
9289;BME280;4683;50.864;12.086;2022-10-16T06:44:22;99108.53;;;18.49;100.00
9289;BME280;4683;50.864;12.086;2022-10-16T06:46:51;99107.47;;;18.62;100.00
9289;BME280;4683;50.864;12.086;2022-10-16T06:49:20;99104.09;;;18.66;100.00
9289;BME280;4683;50.864;12.086;2022-10-16T06:51:50;99109.72;;;18.53;100.00
9289;BME280;4683;50.864;12.086;2022-10-16T06:54:19;99114.66;;;18.26;100.00
9289;BME280;4683;50.864;12.086;2022-10-16T06:56:47;99116.34;;;18.09;100.00
9289;BME280;4683;50.864;12.086;2022-10-16T06:59:17;99097.53;;;18.15;100.00
9289;BME280;4683;50.864;12.086;2022-10-16T07:01:46;99101.31;;;18.26;100.00
9289;BME280;4683;50.864;12.086;2022-10-16T07:04:15;99116.53;;;18.37;100.00
9289;BME280;4683;50.864;12.086;2022-10-16T07:06:44;99107.50;;;18.50;100.00
9289;BME280;4683;50.864;12.086;2022-10-16T07:09:14;99111.19;;;18.61;100.00
9289;BME280;4683;50.864;12.086;2022-10-16T07:11:43;99113.69;;;18.74;100.00
9289;BME280;4683;50.864;12.086;2022-10-16T07:14:20;99110.31;;;18.79;100.00
9289;BME280;4683;50.864;12.086;2022-10-16T07:16:50;99110.41;;;18.84;100.00
9289;BME280;4683;50.864;12.086;2022-10-16T07:19:20;99111.81;;;18.86;100.00
9289;BME280;4683;50.864;12.086;2022-10-16T07:21:49;99113.09;;;18.95;100.00
9289;BME280;4683;50.864;12.086;2022-10-16T07:24:18;99108.44;;;19.02;100.00
9289;BME280;4683;50.864;12.086;2022-10-16T07:26:46;99104.25;;;19.07;100.00
9289;BME280;4683;50.864;12.086;2022-10-16T07:29:17;99109.28;;;19.03;100.00
9289;BME280;4683;50.864;12.086;2022-10-16T07:31:47;99127.50;;;19.06;100.00
9289;BME280;4683;50.864;12.086;2022-10-16T07:34:19;99122.97;;;19.07;100.00
9289;BME280;4683;50.864;12.086;2022-10-16T07:36:50;99125.63;;;19.07;100.00
9289;BME280;4683;50.864;12.086;2022-10-16T07:39:18;99139.59;;;19.09;100.00
9289;BME280;4683;50.864;12.086;2022-10-16T07:41:47;99132.16;;;19.11;100.00
9289;BME280;4683;50.864;12.086;2022-10-16T07:44:16;99143.53;;;19.18;100.00
9289;BME280;4683;50.864;12.086;2022-10-16T07:46:44;99143.06;;;19.21;100.00
9289;BME280;4683;50.864;12.086;2022-10-16T07:49:13;99136.44;;;19.23;100.00
9289;BME280;4683;50.864;12.086;2022-10-16T07:51:43;99135.63;;;19.23;100.00
9289;BME280;4683;50.864;12.086;2022-10-16T07:54:13;99131.44;;;19.27;100.00
9289;BME280;4683;50.864;12.086;2022-10-16T07:56:42;99139.09;;;19.35;100.00
9289;BME280;4683;50.864;12.086;2022-10-16T07:59:11;99137.00;;;19.37;100.00
9289;BME280;4683;50.864;12.086;2022-10-16T08:01:39;99133.84;;;19.40;100.00
9289;BME280;4683;50.864;12.086;2022-10-16T08:04:09;99144.50;;;19.52;100.00
9289;BME280;4683;50.864;12.086;2022-10-16T08:06:39;99144.78;;;19.62;100.00
9289;BME280;4683;50.864;12.086;2022-10-16T08:09:09;99144.88;;;19.67;100.00
9289;BME280;4683;50.864;12.086;2022-10-16T08:11:39;99142.50;;;19.71;100.00
9289;BME280;4683;50.864;12.086;2022-10-16T08:14:07;99139.38;;;19.74;100.00
9289;BME280;4683;50.864;12.086;2022-10-16T08:16:36;99136.44;;;19.75;100.00
9289;BME280;4683;50.864;12.086;2022-10-16T08:19:04;99147.06;;;19.70;100.00
9289;BME280;4683;50.864;12.086;2022-10-16T08:21:33;99156.94;;;19.70;100.00
9289;BME280;4683;50.864;12.086;2022-10-16T08:24:01;99158.09;;;19.74;100.00
9289;BME280;4683;50.864;12.086;2022-10-16T08:26:31;99152.38;;;19.82;100.00
9289;BME280;4683;50.864;12.086;2022-10-16T08:29:00;99158.16;;;19.91;100.00
9289;BME280;4683;50.864;12.086;2022-10-16T08:31:30;99150.91;;;20.03;100.00
9289;BME280;4683;50.864;12.086;2022-10-16T08:33:58;99158.41;;;20.18;100.00
9289;BME280;4683;50.864;12.086;2022-10-16T08:36:26;99166.25;;;20.08;100.00
9289;BME280;4683;50.864;12.086;2022-10-16T08:38:55;99159.97;;;20.02;100.00
9289;BME280;4683;50.864;12.086;2022-10-16T08:41:58;99167.28;;;20.07;100.00
9289;BME280;4683;50.864;12.086;2022-10-16T08:45:02;99178.16;;;20.00;100.00
9289;BME280;4683;50.864;12.086;2022-10-16T08:47:45;99188.16;;;20.05;100.00
9289;BME280;4683;50.864;12.086;2022-10-16T08:50:23;99179.03;;;20.17;100.00
9289;BME280;4683;50.864;12.086;2022-10-16T08:52:54;99182.13;;;20.26;100.00
9289;BME280;4683;50.864;12.086;2022-10-16T08:55:33;99189.41;;;20.14;100.00
9289;BME280;4683;50.864;12.086;2022-10-16T08:58:13;99178.59;;;20.09;100.00
9289;BME280;4683;50.864;12.086;2022-10-16T09:00:45;99190.53;;;20.18;100.00
9289;BME280;4683;50.864;12.086;2022-10-16T09:03:39;99190.97;;;19.98;100.00
9289;BME280;4683;50.864;12.086;2022-10-16T09:06:46;99198.16;;;20.09;100.00
9289;BME280;4683;50.864;12.086;2022-10-16T09:09:43;99199.44;;;20.07;100.00
9289;BME280;4683;50.864;12.086;2022-10-16T09:12:20;99206.97;;;20.21;100.00
9289;BME280;4683;50.864;12.086;2022-10-16T09:15:12;99215.97;;;20.32;100.00
9289;BME280;4683;50.864;12.086;2022-10-16T09:17:54;99223.72;;;20.45;100.00
9289;BME280;4683;50.864;12.086;2022-10-16T09:20:33;99218.50;;;20.50;100.00
9289;BME280;4683;50.864;12.086;2022-10-16T09:23:17;99235.97;;;20.53;100.00
9289;BME280;4683;50.864;12.086;2022-10-16T09:25:49;99230.50;;;20.48;100.00
9289;BME280;4683;50.864;12.086;2022-10-16T09:28:18;99228.66;;;20.48;100.00
9289;BME280;4683;50.864;12.086;2022-10-16T09:30:48;99233.84;;;20.55;100.00
9289;BME280;4683;50.864;12.086;2022-10-16T09:33:20;99241.63;;;20.57;100.00
9289;BME280;4683;50.864;12.086;2022-10-16T09:35:52;99244.59;;;20.43;100.00
9289;BME280;4683;50.864;12.086;2022-10-16T09:38:24;99240.63;;;20.46;100.00
9289;BME280;4683;50.864;12.086;2022-10-16T09:40:54;99242.06;;;20.48;100.00
9289;BME280;4683;50.864;12.086;2022-10-16T09:43:28;99240.41;;;20.47;100.00
9289;BME280;4683;50.864;12.086;2022-10-16T09:46:05;99238.66;;;20.53;100.00
9289;BME280;4683;50.864;12.086;2022-10-16T09:48:38;99244.91;;;20.59;100.00
9289;BME280;4683;50.864;12.086;2022-10-16T09:51:18;99248.81;;;20.68;100.00
9289;BME280;4683;50.864;12.086;2022-10-16T09:53:48;99257.84;;;20.95;100.00
9289;BME280;4683;50.864;12.086;2022-10-16T09:56:28;99255.91;;;20.91;100.00
9289;BME280;4683;50.864;12.086;2022-10-16T09:59:00;99254.75;;;20.70;100.00
9289;BME280;4683;50.864;12.086;2022-10-16T10:01:36;99254.59;;;20.93;100.00
9289;BME280;4683;50.864;12.086;2022-10-16T10:04:09;99261.19;;;21.02;100.00
9289;BME280;4683;50.864;12.086;2022-10-16T10:06:44;99254.53;;;21.05;100.00
9289;BME280;4683;50.864;12.086;2022-10-16T10:09:22;99261.19;;;21.19;100.00
9289;BME280;4683;50.864;12.086;2022-10-16T10:11:54;99265.34;;;21.44;100.00
9289;BME280;4683;50.864;12.086;2022-10-16T10:14:31;99263.56;;;21.49;100.00
9289;BME280;4683;50.864;12.086;2022-10-16T10:17:13;99265.25;;;21.39;100.00
9289;BME280;4683;50.864;12.086;2022-10-16T10:19:51;99266.47;;;21.14;100.00
9289;BME280;4683;50.864;12.086;2022-10-16T10:22:30;99264.97;;;21.35;100.00
9289;BME280;4683;50.864;12.086;2022-10-16T10:25:25;99259.59;;;21.35;100.00
9289;BME280;4683;50.864;12.086;2022-10-16T10:28:26;99261.94;;;21.48;100.00
9289;BME280;4683;50.864;12.086;2022-10-16T10:31:03;99265.09;;;21.28;100.00
9289;BME280;4683;50.864;12.086;2022-10-16T10:33:48;99257.28;;;21.27;100.00
9289;BME280;4683;50.864;12.086;2022-10-16T10:36:29;99264.63;;;21.48;100.00
9289;BME280;4683;50.864;12.086;2022-10-16T10:39:03;99267.84;;;21.50;100.00
9289;BME280;4683;50.864;12.086;2022-10-16T10:42:00;99262.13;;;21.30;100.00
9289;BME280;4683;50.864;12.086;2022-10-16T10:44:50;99259.94;;;21.61;100.00
9289;BME280;4683;50.864;12.086;2022-10-16T10:47:33;99264.00;;;21.63;100.00
9289;BME280;4683;50.864;12.086;2022-10-16T10:50:20;99272.69;;;21.70;100.00
9289;BME280;4683;50.864;12.086;2022-10-16T10:53:18;99275.50;;;21.59;100.00
9289;BME280;4683;50.864;12.086;2022-10-16T10:55:57;99264.00;;;21.63;100.00
9289;BME280;4683;50.864;12.086;2022-10-16T11:01:46;99274.13;;;21.78;100.00
9289;BME280;4683;50.864;12.086;2022-10-16T11:04:50;99269.91;;;21.82;100.00
9289;BME280;4683;50.864;12.086;2022-10-16T11:07:31;99266.97;;;22.06;100.00
9289;BME280;4683;50.864;12.086;2022-10-16T11:10:08;99262.63;;;22.21;100.00
9289;BME280;4683;50.864;12.086;2022-10-16T11:12:42;99264.94;;;22.35;100.00
9289;BME280;4683;50.864;12.086;2022-10-16T11:15:17;99269.59;;;22.44;100.00
9289;BME280;4683;50.864;12.086;2022-10-16T11:17:51;99268.47;;;22.40;100.00
9289;BME280;4683;50.864;12.086;2022-10-16T11:20:24;99263.72;;;22.52;100.00
9289;BME280;4683;50.864;12.086;2022-10-16T11:23:00;99265.38;;;22.53;100.00
9289;BME280;4683;50.864;12.086;2022-10-16T11:25:32;99273.50;;;22.59;100.00
9289;BME280;4683;50.864;12.086;2022-10-16T11:28:06;99284.03;;;22.38;100.00
9289;BME280;4683;50.864;12.086;2022-10-16T11:30:43;99280.91;;;22.24;100.00
9289;BME280;4683;50.864;12.086;2022-10-16T11:33:29;99281.19;;;22.23;100.00
9289;BME280;4683;50.864;12.086;2022-10-16T11:36:08;99279.72;;;22.15;100.00
9289;BME280;4683;50.864;12.086;2022-10-16T11:38:48;99287.91;;;22.03;100.00
9289;BME280;4683;50.864;12.086;2022-10-16T11:41:27;99292.84;;;22.12;100.00
9289;BME280;4683;50.864;12.086;2022-10-16T11:44:14;99294.41;;;22.08;100.00
9289;BME280;4683;50.864;12.086;2022-10-16T11:46:57;99299.78;;;22.08;100.00
9289;BME280;4683;50.864;12.086;2022-10-16T11:49:27;99297.00;;;22.02;100.00
9289;BME280;4683;50.864;12.086;2022-10-16T11:52:06;99300.78;;;21.63;100.00
9289;BME280;4683;50.864;12.086;2022-10-16T11:54:45;99302.66;;;21.62;100.00
9289;BME280;4683;50.864;12.086;2022-10-16T11:57:20;99307.38;;;21.72;100.00
9289;BME280;4683;50.864;12.086;2022-10-16T11:59:54;99292.94;;;21.78;100.00
9289;BME280;4683;50.864;12.086;2022-10-16T12:02:44;99303.28;;;21.69;100.00
9289;BME280;4683;50.864;12.086;2022-10-16T12:05:26;99308.34;;;21.66;100.00
9289;BME280;4683;50.864;12.086;2022-10-16T12:08:08;99306.72;;;21.65;100.00
9289;BME280;4683;50.864;12.086;2022-10-16T12:10:41;99300.78;;;21.63;100.00
9289;BME280;4683;50.864;12.086;2022-10-16T12:13:31;99313.56;;;21.56;100.00
9289;BME280;4683;50.864;12.086;2022-10-16T12:16:21;99302.69;;;21.45;100.00
9289;BME280;4683;50.864;12.086;2022-10-16T12:19:11;99306.56;;;21.55;100.00
9289;BME280;4683;50.864;12.086;2022-10-16T12:21:41;99312.28;;;21.80;100.00
9289;BME280;4683;50.864;12.086;2022-10-16T12:24:27;99317.53;;;21.70;100.00
9289;BME280;4683;50.864;12.086;2022-10-16T12:27:00;99311.09;;;22.10;100.00
9289;BME280;4683;50.864;12.086;2022-10-16T12:29:36;99317.56;;;22.31;100.00
9289;BME280;4683;50.864;12.086;2022-10-16T12:32:23;99324.63;;;22.15;100.00
9289;BME280;4683;50.864;12.086;2022-10-16T12:34:54;99318.50;;;22.02;100.00
9289;BME280;4683;50.864;12.086;2022-10-16T12:37:26;99320.19;;;21.87;100.00
9289;BME280;4683;50.864;12.086;2022-10-16T12:39:56;99315.38;;;22.11;100.00
9289;BME280;4683;50.864;12.086;2022-10-16T12:42:37;99324.78;;;22.30;100.00
9289;BME280;4683;50.864;12.086;2022-10-16T12:45:28;99324.78;;;22.30;100.00
9289;BME280;4683;50.864;12.086;2022-10-16T12:48:01;99315.91;;;22.08;100.00
9289;BME280;4683;50.864;12.086;2022-10-16T12:50:35;99314.78;;;22.03;100.00
9289;BME280;4683;50.864;12.086;2022-10-16T12:53:18;99312.97;;;22.09;100.00
9289;BME280;4683;50.864;12.086;2022-10-16T12:55:57;99314.44;;;22.17;100.00
9289;BME280;4683;50.864;12.086;2022-10-16T12:58:47;99317.19;;;22.22;100.00
9289;BME280;4683;50.864;12.086;2022-10-16T13:01:34;99318.09;;;22.33;100.00
9289;BME280;4683;50.864;12.086;2022-10-16T13:04:51;99324.19;;;22.23;100.00
9289;BME280;4683;50.864;12.086;2022-10-16T13:07:49;99312.59;;;22.44;100.00
9289;BME280;4683;50.864;12.086;2022-10-16T13:10:30;99316.28;;;22.38;100.00
9289;BME280;4683;50.864;12.086;2022-10-16T13:13:30;99316.28;;;22.38;100.00
9289;BME280;4683;50.864;12.086;2022-10-16T13:16:18;99323.16;;;22.51;100.00
9289;BME280;4683;50.864;12.086;2022-10-16T13:19:01;99330.00;;;22.37;100.00
9289;BME280;4683;50.864;12.086;2022-10-16T13:21:42;99328.06;;;22.32;100.00
9289;BME280;4683;50.864;12.086;2022-10-16T13:24:25;99323.16;;;22.29;100.00
9289;BME280;4683;50.864;12.086;2022-10-16T13:27:10;99325.09;;;22.34;100.00
9289;BME280;4683;50.864;12.086;2022-10-16T13:29:43;99329.13;;;22.31;100.00
9289;BME280;4683;50.864;12.086;2022-10-16T13:32:16;99322.25;;;22.40;100.00
9289;BME280;4683;50.864;12.086;2022-10-16T13:34:47;99316.53;;;22.37;100.00
9289;BME280;4683;50.864;12.086;2022-10-16T13:37:20;99329.19;;;22.36;100.00
9289;BME280;4683;50.864;12.086;2022-10-16T13:40:13;99324.25;;;22.28;100.00